Terminal Aerodrome Forecast
Issued by NWS Mt. Holly, NJ

Home | Current Version | Previous Version | Text Only | Print | Product List | Glossary On
Versions: 1 2 3 4 5 6 7 8 9 10 11 12 13 14 15 16 17 18 19 20 21 22 23 24 25 26 27 28
000
FTUS41 KPHI 282114 AAA
TAFABE
TAF AMD
KABE 282114Z 2821/2918 19008KT 5SM -RA BKN050 OVC090
     FM282300 VRB03KT 6SM -RA BR OVC040
     FM290400 08004KT 3SM BR OVC010
     FM291500 08007KT P6SM OVC020=

USA.gov is the U.S. government's official web portal to all federal, state and local government web resources and services.